Time;durP1;ratioP1;P1;durP2;ratioP2;P2;SDS_P1;SDS_P2;PMS_P1;PMS_P2;Temp;Humidity;BMP_temperature;BMP_pressure;BME280_temperature;BME280_humidity;BME280_pressure;Samples;Min_cycle;Max_cycle;Signal;HPM_P1;HPM_P2
2023/08/01 00:01:51;;;;;;;8.93;5.03;;;18.90;92.80;;;18.76;80.51;96912.63;5014727;28;20463;-79
2023/08/01 00:04:19;;;;;;;5.90;4.77;;;18.80;92.70;;;18.73;80.88;96903.06;4997737;28;20929;-80
2023/08/01 00:06:47;;;;;;;4.97;4.03;;;18.70;93.20;;;18.84;81.02;96903.72;4988140;28;20482;-79
2023/08/01 00:09:14;;;;;;;5.43;4.10;;;18.70;93.40;;;18.63;80.87;96870.38;5013662;28;20458;-79
2023/08/01 00:11:41;;;;;;;4.27;3.73;;;18.80;93.60;;;18.47;79.38;96795.97;5004701;28;20492;-79
2023/08/01 00:14:08;;;;;;;5.70;3.90;;;18.90;92.80;;;19.02;80.46;96904.03;4986397;28;20466;-78
2023/08/01 00:16:36;;;;;;;5.10;3.90;;;18.70;93.60;;;18.59;82.05;96913.94;5011177;28;20460;-80
2023/08/01 00:19:03;;;;;;;5.57;3.83;;;18.60;93.70;;;19.02;80.35;96904.03;4994316;28;20474;-79
2023/08/01 00:21:32;;;;;;;5.23;3.80;;;18.70;93.70;;;19.28;78.77;96907.19;5009198;28;20445;-81
2023/08/01 00:23:59;;;;;;;4.07;3.67;;;18.80;93.20;;;18.05;81.12;96788.38;5009225;28;20443;-77
2023/08/01 00:26:26;;;;;;;4.67;4.00;;;18.70;93.70;;;18.96;80.72;96908.78;5020714;28;20537;-78
2023/08/01 00:28:54;;;;;;;4.17;3.77;;;18.60;94.00;;;18.69;81.50;96908.31;5006811;28;20463;-78
2023/08/01 00:31:21;;;;;;;7.20;4.10;;;18.50;93.90;;;18.77;81.59;96911.50;5010214;28;20450;-78
2023/08/01 00:33:48;;;;;;;4.63;4.03;;;18.60;94.10;;;18.78;81.41;96907.66;5010821;28;21273;-78
2023/08/01 00:36:18;;;;;;;4.33;3.93;;;18.60;93.70;;;18.78;81.98;96910.41;5009243;28;20469;-82
2023/08/01 00:38:48;;;;;;;4.03;3.63;;;18.40;94.80;;;19.07;79.97;96906.72;5003397;28;20485;-79
2023/08/01 00:41:16;;;;;;;4.40;3.80;;;18.60;93.70;;;18.36;82.69;96900.03;4995580;28;20469;-78
2023/08/01 00:43:43;;;;;;;5.37;4.30;;;18.40;94.20;;;18.30;83.33;96865.66;4992071;28;20522;-79
2023/08/01 00:46:11;;;;;;;4.57;4.10;;;18.20;95.10;;;18.57;82.39;96894.25;5019698;28;20460;-78
2023/08/01 00:48:39;;;;;;;4.80;3.47;;;18.20;95.00;;;18.77;80.77;96882.22;4997185;28;20463;-77
2023/08/01 00:51:08;;;;;;;4.40;4.00;;;18.50;94.20;;;19.23;78.51;96883.44;4996673;28;20549;-78
2023/08/01 00:53:36;;;;;;;5.33;3.77;;;18.80;93.10;;;18.91;78.26;96827.56;5013433;28;20455;-78
2023/08/01 00:56:05;;;;;;;4.23;3.60;;;18.90;92.70;;;18.62;79.26;96820.34;5022621;28;20461;-79
2023/08/01 00:58:33;;;;;;;5.60;3.87;;;18.80;92.60;;;18.71;80.06;96872.47;4997805;28;20470;-78
2023/08/01 01:01:00;;;;;;;4.17;3.77;;;18.70;92.70;;;18.53;81.64;96860.41;4999542;28;20485;-79
2023/08/01 01:03:28;;;;;;;4.40;4.00;;;18.50;93.60;;;18.49;81.37;96864.84;4986025;28;20468;-78
2023/08/01 01:06:09;;;;;;;4.10;3.70;;;18.40;93.70;;;18.58;81.43;96857.63;4983772;28;20578;-78
2023/08/01 01:08:37;;;;;;;5.07;3.97;;;18.30;94.10;;;18.44;82.42;96860.28;5008913;28;20462;-80
2023/08/01 01:11:06;;;;;;;5.10;4.23;;;18.30;94.20;;;18.02;82.56;96786.22;4986077;28;20466;-82
2023/08/01 01:13:33;;;;;;;5.17;4.20;;;18.30;94.20;;;18.44;83.19;96857.53;5010444;28;20463;-80
2023/08/01 01:16:03;;;;;;;4.77;3.70;;;18.20;95.00;;;18.07;85.95;96843.53;5018572;28;20955;-79
2023/08/01 01:18:31;;;;;;;4.63;3.70;;;18.00;96.50;;;17.59;83.92;96743.31;5003986;28;20486;-78
2023/08/01 01:21:00;;;;;;;4.30;3.90;;;18.00;95.60;;;18.33;83.60;96840.47;5003289;28;20509;-78
2023/08/01 01:23:28;;;;;;;7.30;4.20;;;18.10;95.50;;;17.48;86.57;96783.56;5000101;28;20458;-83
2023/08/01 01:25:57;;;;;;;3.93;3.50;;;17.90;96.40;;;17.81;87.54;96845.75;5008810;28;20456;-79
2023/08/01 01:28:25;;;;;;;5.40;3.97;;;17.80;97.70;;;17.55;88.72;96794.16;5003094;28;20480;-81
2023/08/01 01:30:54;;;;;;;4.40;4.00;;;17.70;98.80;;;17.66;88.59;96830.34;5012320;28;20972;-79
2023/08/01 01:33:22;;;;;;;5.13;4.37;;;17.70;98.70;;;17.56;88.41;96804.78;5010414;28;20460;-78
2023/08/01 01:35:49;;;;;;;4.70;4.07;;;17.60;98.70;;;18.09;85.65;96808.53;4982810;28;20476;-80
2023/08/01 01:38:18;;;;;;;4.40;4.00;;;17.80;97.60;;;17.84;87.52;96806.91;5003655;28;20541;-79
2023/08/01 01:40:45;;;;;;;4.40;3.60;;;17.70;97.40;;;17.79;87.92;96810.50;4992124;28;20493;-81
2023/08/01 01:43:12;;;;;;;5.43;3.73;;;17.70;98.00;;;17.88;87.13;96807.94;5013130;28;20453;-81
2023/08/01 01:45:40;;;;;;;4.30;3.90;;;17.70;97.90;;;17.71;87.74;96786.59;5013034;28;20462;-79
2023/08/01 01:48:07;;;;;;;5.00;4.20;;;17.70;97.60;;;17.75;87.71;96797.75;5005999;28;20460;-79
2023/08/01 01:50:34;;;;;;;6.53;4.27;;;17.70;97.60;;;18.08;85.58;96800.63;5010659;28;21006;-78
2023/08/01 01:53:02;;;;;;;4.37;3.97;;;17.90;96.60;;;18.11;85.13;96789.91;5004717;28;20456;-79
2023/08/01 01:55:30;;;;;;;4.77;3.80;;;18.00;96.10;;;18.07;86.13;96793.53;4995842;28;20442;-81
2023/08/01 01:57:59;;;;;;;5.53;4.27;;;17.90;96.90;;;17.83;87.30;96784.25;5000712;28;20981;-80
2023/08/01 02:00:27;;;;;;;6.03;4.27;;;17.90;96.90;;;17.98;86.07;96791.44;5007735;28;21066;-80
2023/08/01 02:02:54;;;;;;;4.70;3.07;;;17.90;96.60;;;18.09;85.90;96797.59;5006951;28;20451;-79
2023/08/01 02:05:21;;;;;;;3.93;3.53;;;17.90;96.50;;;17.81;86.84;96772.78;4989940;28;20623;-80
2023/08/01 02:07:49;;;;;;;5.20;3.57;;;17.90;96.80;;;18.01;85.99;96784.56;5009891;28;20462;-80
2023/08/01 02:10:16;;;;;;;4.87;4.10;;;17.90;96.50;;;17.67;87.44;96741.88;5018763;28;20466;-82
2023/08/01 02:12:45;;;;;;;5.03;3.90;;;17.80;97.30;;;17.91;87.09;96760.94;5006605;28;20990;-84
2023/08/01 02:15:12;;;;;;;4.60;3.07;;;17.80;97.80;;;17.34;86.29;96654.34;5008430;28;20454;-81
2023/08/01 02:17:40;;;;;;;5.63;4.00;;;17.80;97.40;;;18.39;83.55;96743.56;4984197;28;20463;-83
2023/08/01 02:20:08;;;;;;;5.00;3.53;;;18.00;96.10;;;18.33;83.09;96742.03;5006433;28;20485;-83
2023/08/01 02:22:36;;;;;;;4.50;3.50;;;18.20;94.40;;;17.80;83.75;96653.72;5004266;28;20468;-82
2023/08/01 02:25:03;;;;;;;4.60;3.57;;;18.20;94.90;;;18.35;83.66;96734.34;4991814;28;20540;-81
2023/08/01 02:27:30;;;;;;;4.60;4.03;;;18.30;94.60;;;18.75;81.16;96709.34;4979941;28;20987;-80
2023/08/01 02:29:59;;;;;;;5.47;3.20;;;18.40;94.10;;;18.78;80.91;96707.94;4984027;28;20524;-76
2023/08/01 02:32:26;;;;;;;3.50;3.13;;;18.60;93.40;;;18.19;80.67;96613.50;4986512;28;20464;-80
2023/08/01 02:34:54;;;;;;;4.03;3.60;;;18.60;93.30;;;18.14;83.31;96675.66;4987140;28;20467;-79
2023/08/01 02:37:21;;;;;;;3.83;3.43;;;18.40;93.80;;;17.81;83.65;96633.47;4991400;28;20464;-78
2023/08/01 02:39:48;;;;;;;4.73;3.03;;;18.20;94.60;;;18.14;83.45;96678.41;4992549;28;20497;-78
2023/08/01 02:42:17;;;;;;;4.30;3.60;;;18.20;94.90;;;18.34;82.95;96701.84;4994611;28;20449;-81
2023/08/01 02:44:44;;;;;;;4.37;3.27;;;18.20;94.30;;;18.75;80.97;96695.69;4989916;28;20446;-83
2023/08/01 02:47:12;;;;;;;4.77;3.70;;;18.40;94.10;;;18.82;79.09;96663.28;5005145;28;20456;-78
2023/08/01 02:49:40;;;;;;;6.20;3.57;;;18.60;93.40;;;18.71;80.14;96671.97;5000342;28;20470;-83
2023/08/01 02:52:07;;;;;;;4.90;3.73;;;18.60;93.50;;;19.00;78.24;96651.75;4991241;28;20824;-81
2023/08/01 02:54:34;;;;;;;4.17;3.40;;;18.80;92.60;;;19.40;77.00;96688.44;4986097;28;20469;-77
2023/08/01 02:57:02;;;;;;;5.20;3.90;;;19.00;92.00;;;19.53;76.06;96684.06;5003563;28;20474;-80
2023/08/01 02:59:29;;;;;;;5.03;3.60;;;19.10;91.60;;;18.72;79.12;96659.91;4989121;28;21002;-82
2023/08/01 03:01:56;;;;;;;3.60;3.00;;;18.80;92.30;;;19.22;77.12;96673.75;4986069;28;20528;-78
2023/08/01 03:04:25;;;;;;;7.30;3.30;;;19.00;92.00;;;19.25;76.91;96684.09;5002226;28;20452;-78
2023/08/01 03:06:52;;;;;;;3.97;3.57;;;18.90;92.00;;;19.17;77.58;96705.91;4993296;28;21046;-82
2023/08/01 03:09:20;;;;;;;3.93;3.50;;;19.00;91.70;;;18.66;81.65;96711.97;4998083;28;20457;-78
2023/08/01 03:11:48;;;;;;;3.90;3.33;;;18.70;93.00;;;18.18;83.39;96714.94;5014816;28;20462;-78
2023/08/01 03:14:16;;;;;;;4.50;3.63;;;18.30;93.80;;;18.17;84.87;96716.06;5012883;28;20982;-82
2023/08/01 03:16:43;;;;;;;4.50;4.10;;;18.10;95.20;;;17.72;86.45;96687.16;4988144;28;20465;-79
2023/08/01 03:19:11;;;;;;;5.30;3.80;;;17.90;96.40;;;17.59;87.30;96687.88;5003673;28;21022;-80
2023/08/01 03:21:39;;;;;;;5.07;4.50;;;17.70;97.50;;;17.63;88.72;96721.69;5008544;28;20470;-80
2023/08/01 03:24:08;;;;;;;5.03;4.13;;;17.60;97.80;;;17.85;87.61;96718.38;5009182;28;20473;-85
2023/08/01 03:26:36;;;;;;;7.53;3.97;;;17.70;97.70;;;17.75;88.53;96713.88;5009202;28;20513;-79
2023/08/01 03:29:05;;;;;;;4.67;3.60;;;17.70;98.30;;;17.66;88.16;96669.22;5007653;28;20480;-79
2023/08/01 03:31:32;;;;;;;4.63;3.83;;;17.70;98.00;;;17.47;90.97;96700.03;5012989;28;20462;-80
2023/08/01 03:34:00;;;;;;;7.17;4.70;;;17.50;99.00;;;17.46;92.27;96698.41;5008349;28;20473;-79
2023/08/01 03:36:28;;;;;;;6.87;4.30;;;17.40;99.90;;;17.36;92.69;96698.53;5011539;28;20470;-78
2023/08/01 03:38:58;;;;;;;4.43;3.73;;;17.30;99.90;;;17.63;87.00;96632.41;4993995;28;20464;-81
2023/08/01 03:41:26;;;;;;;4.40;4.00;;;17.60;99.20;;;17.90;85.18;96649.22;5015669;28;20478;-80
2023/08/01 03:43:54;;;;;;;4.60;4.13;;;17.90;96.80;;;18.24;84.56;96679.03;4994687;28;20455;-78
2023/08/01 03:46:22;;;;;;;4.30;3.90;;;18.10;95.60;;;17.98;86.19;96663.00;5001745;28;20512;-81
2023/08/01 03:48:49;;;;;;;4.50;3.43;;;17.90;96.70;;;17.65;88.36;96657.50;5014547;28;20455;-80
2023/08/01 03:51:17;;;;;;;5.30;3.63;;;17.80;97.30;;;17.77;88.49;96662.50;4982359;28;20586;-83
2023/08/01 03:53:45;;;;;;;6.27;4.60;;;17.70;98.10;;;17.31;89.46;96598.44;4996529;28;20458;-77
2023/08/01 03:56:13;;;;;;;4.50;3.67;;;17.60;98.60;;;17.68;88.02;96628.78;5016201;28;20452;-78
2023/08/01 03:58:41;;;;;;;4.70;3.87;;;17.70;98.10;;;17.58;87.96;96601.63;5006534;28;20465;-79
2023/08/01 04:01:08;;;;;;;4.47;3.73;;;17.70;98.50;;;17.77;88.97;96654.31;4994419;28;20474;-76
2023/08/01 04:03:35;;;;;;;4.60;3.80;;;17.70;98.30;;;17.30;88.54;96574.16;5002470;28;20474;-78
2023/08/01 04:06:03;;;;;;;5.03;3.87;;;17.70;98.50;;;17.93;87.84;96640.41;5006524;28;20466;-80
2023/08/01 04:08:31;;;;;;;4.70;3.80;;;17.70;98.10;;;17.98;85.60;96610.31;5013875;28;20465;-80
2023/08/01 04:10:58;;;;;;;4.47;3.83;;;17.90;96.90;;;18.14;85.50;96637.41;4991638;28;20498;-76
2023/08/01 04:13:27;;;;;;;6.23;4.10;;;18.10;95.60;;;18.26;83.10;96615.84;4986547;28;20466;-76
2023/08/01 04:15:54;;;;;;;4.97;4.10;;;18.30;94.50;;;18.36;83.89;96636.75;4997597;28;20474;-75
2023/08/01 04:18:21;;;;;;;4.10;3.63;;;18.20;95.00;;;17.99;85.81;96633.78;4992816;28;20462;-77
2023/08/01 04:20:48;;;;;;;5.00;4.30;;;18.10;95.50;;;17.94;86.94;96642.03;5005862;28;20488;-79
2023/08/01 04:23:16;;;;;;;5.53;4.27;;;17.90;96.60;;;17.86;86.26;96615.41;5013080;28;20451;-78
2023/08/01 04:25:43;;;;;;;7.50;4.40;;;18.00;96.30;;;17.97;85.72;96619.59;5013397;28;21038;-77
2023/08/01 04:28:10;;;;;;;5.90;4.80;;;18.00;95.50;;;18.01;84.34;96593.31;5013629;28;20525;-77
2023/08/01 04:30:39;;;;;;;5.33;4.10;;;18.20;95.10;;;17.90;86.33;96630.09;5001322;28;20466;-77
2023/08/01 04:33:06;;;;;;;7.00;5.00;;;18.00;95.70;;;18.11;85.18;96619.69;5006467;28;20530;-79
2023/08/01 04:35:34;;;;;;;8.13;4.63;;;18.00;95.60;;;17.44;86.78;96547.75;5007271;28;21098;-78
2023/08/01 04:38:01;;;;;;;6.43;4.20;;;17.90;96.00;;;18.22;84.13;96591.06;4998931;28;20452;-80
2023/08/01 04:40:29;;;;;;;4.83;3.97;;;18.10;95.60;;;17.92;86.15;96612.28;4994704;28;20486;-77
2023/08/01 04:42:56;;;;;;;4.03;3.53;;;18.00;95.50;;;18.02;85.38;96584.03;4992987;28;20507;-78
2023/08/01 04:45:23;;;;;;;4.93;4.27;;;17.90;96.40;;;18.12;85.58;96603.00;4989617;28;20510;-76
2023/08/01 04:47:51;;;;;;;6.63;3.97;;;18.00;95.90;;;18.11;84.88;96586.88;4995372;28;21045;-80
2023/08/01 04:50:18;;;;;;;4.70;4.30;;;18.00;96.10;;;17.87;87.85;96600.63;5009223;28;20525;-79
2023/08/01 04:52:46;;;;;;;4.57;3.37;;;17.90;97.10;;;17.47;87.79;96540.91;5009890;28;20536;-82
2023/08/01 04:55:14;;;;;;;6.43;4.23;;;17.70;97.40;;;17.84;88.33;96593.84;5008737;28;20656;-77
2023/08/01 04:57:41;;;;;;;4.83;3.67;;;17.80;97.80;;;17.51;88.58;96569.22;5023635;28;20954;-82
2023/08/01 05:00:10;;;;;;;5.17;4.10;;;17.70;97.70;;;17.64;89.22;96592.22;4998517;28;20462;-78
2023/08/01 05:02:38;;;;;;;6.53;4.33;;;17.70;98.50;;;17.94;87.71;96595.59;5007124;28;20470;-81
2023/08/01 05:05:08;;;;;;;4.87;4.20;;;17.80;97.50;;;17.86;87.45;96575.22;5002403;28;20486;-77
2023/08/01 05:07:35;;;;;;;8.27;3.70;;;17.80;97.40;;;17.93;88.01;96597.53;4991872;28;20456;-77
2023/08/01 05:10:02;;;;;;;6.60;5.13;;;17.80;97.90;;;18.06;87.54;96597.91;4998260;28;20473;-77
2023/08/01 05:12:30;;;;;;;7.30;4.07;;;17.80;98.10;;;17.87;88.64;96597.91;4986628;28;20486;-83
2023/08/01 05:14:57;;;;;;;4.53;3.67;;;17.70;99.00;;;17.97;87.46;96587.63;5019234;28;20524;-79
2023/08/01 05:17:25;;;;;;;5.93;4.40;;;17.80;98.50;;;17.95;85.87;96567.16;4993792;28;20477;-80
2023/08/01 05:19:52;;;;;;;5.87;4.27;;;17.90;96.70;;;17.54;86.86;96536.69;5021160;28;20454;-80
2023/08/01 05:22:21;;;;;;;5.17;4.67;;;17.80;97.40;;;17.75;88.58;96601.09;5011067;28;20461;-81
2023/08/01 05:24:48;;;;;;;5.27;3.87;;;17.70;97.70;;;17.98;86.54;96600.16;4993735;28;20546;-85
2023/08/01 05:27:16;;;;;;;4.63;3.93;;;17.80;97.60;;;17.40;87.84;96541.28;5002630;28;20469;-82
2023/08/01 05:29:43;;;;;;;8.80;4.90;;;17.70;97.20;;;17.64;89.70;96605.88;5005542;28;20835;-82
2023/08/01 05:32:10;;;;;;;6.20;4.50;;;17.60;98.60;;;17.80;89.79;96601.81;5011855;28;20463;-77
2023/08/01 05:34:37;;;;;;;5.87;4.63;;;17.60;99.40;;;17.46;90.83;96594.69;5006936;28;20471;-77
2023/08/01 05:37:06;;;;;;;7.93;5.23;;;17.50;99.70;;;17.73;88.64;96587.72;5021299;28;20463;-78
2023/08/01 05:39:35;;;;;;;5.90;4.83;;;17.60;99.60;;;17.64;87.94;96563.00;4997976;28;20463;-83
2023/08/01 05:42:02;;;;;;;4.10;3.60;;;17.60;99.20;;;17.45;86.92;96508.44;5000930;28;20642;-77
2023/08/01 05:44:30;;;;;;;6.53;4.60;;;17.70;97.90;;;17.94;85.28;96574.56;5003454;28;20487;-76
2023/08/01 05:46:57;;;;;;;6.60;4.17;;;17.80;96.50;;;18.05;87.04;96613.47;5003024;28;20469;-78
2023/08/01 05:49:24;;;;;;;8.03;4.23;;;17.90;97.40;;;17.65;89.00;96619.25;5004218;28;20452;-77
2023/08/01 05:51:51;;;;;;;4.97;4.50;;;17.60;97.50;;;17.68;88.68;96593.28;4983558;28;20727;-79
2023/08/01 05:54:19;;;;;;;5.00;4.00;;;17.60;98.30;;;17.95;87.62;96610.88;5003778;28;20460;-80
2023/08/01 05:56:49;;;;;;;3.87;3.47;;;17.70;98.40;;;17.71;87.71;96573.56;5008980;28;20463;-79
2023/08/01 05:59:17;;;;;;;7.73;4.70;;;17.70;97.70;;;17.76;88.03;96602.72;4985704;28;20995;-78
2023/08/01 06:01:44;;;;;;;5.80;4.53;;;17.70;98.20;;;17.86;88.53;96608.00;4964654;28;20478;-80
2023/08/01 06:04:11;;;;;;;4.20;3.73;;;17.70;98.60;;;17.24;88.93;96549.69;4999638;28;20516;-80
2023/08/01 06:06:38;;;;;;;6.17;4.40;;;17.60;98.50;;;17.70;88.23;96586.41;4996471;28;20463;-82
2023/08/01 06:09:06;;;;;;;5.00;3.80;;;17.60;98.50;;;17.83;87.96;96611.34;4987285;28;20457;-82
2023/08/01 06:11:35;;;;;;;4.70;4.13;;;17.70;98.20;;;17.69;89.15;96603.09;5008531;28;20464;-83
2023/08/01 06:14:05;;;;;;;4.30;3.90;;;17.70;98.90;;;17.72;90.95;96607.13;5000630;28;20480;-81
2023/08/01 06:16:32;;;;;;;6.13;4.90;;;17.60;99.90;;;17.64;90.68;96587.59;4998144;28;20471;-80
2023/08/01 06:18:59;;;;;;;5.63;4.30;;;17.60;99.90;;;17.50;91.22;96579.31;4979771;28;20665;-81
2023/08/01 06:21:27;;;;;;;7.00;6.00;;;17.60;99.90;;;17.77;90.19;96613.34;4997579;28;20477;-80
2023/08/01 06:23:54;;;;;;;5.40;3.83;;;17.60;99.90;;;17.64;90.35;96582.13;4997134;28;20460;-78
2023/08/01 06:26:21;;;;;;;5.20;4.60;;;17.60;99.90;;;17.67;90.69;96613.50;4994480;28;20459;-80
2023/08/01 06:28:48;;;;;;;4.40;4.00;;;17.60;99.90;;;17.83;90.43;96614.06;4994671;28;20584;-80
2023/08/01 06:31:17;;;;;;;4.70;4.20;;;17.60;99.90;;;18.03;90.20;96615.69;4993528;28;20463;-80
2023/08/01 06:33:44;;;;;;;5.10;4.60;;;17.70;99.90;;;18.14;87.84;96635.47;4975807;28;20510;-78
2023/08/01 06:36:12;;;;;;;5.67;3.93;;;17.90;98.20;;;18.04;89.13;96633.72;4976794;28;20517;-78
2023/08/01 06:38:40;;;;;;;5.13;4.30;;;17.90;99.10;;;17.91;89.51;96645.38;4998430;28;20477;-79
2023/08/01 06:41:07;;;;;;;5.57;4.60;;;17.80;99.20;;;17.73;91.03;96625.97;4994871;28;20470;-79
2023/08/01 06:43:37;;;;;;;4.53;3.50;;;17.70;99.90;;;17.74;91.81;96635.78;4998210;28;20795;-75
2023/08/01 06:46:04;;;;;;;5.60;4.07;;;17.60;99.90;;;17.80;91.17;96642.78;4982344;28;20451;-76
2023/08/01 06:48:34;;;;;;;6.50;4.50;;;17.70;99.90;;;17.92;91.58;96649.72;4999322;28;20461;-78
2023/08/01 06:51:02;;;;;;;5.30;4.63;;;17.60;99.90;;;17.35;92.68;96577.63;4998894;28;20471;-77
2023/08/01 06:53:29;;;;;;;5.77;4.17;;;17.60;99.90;;;17.70;93.33;96634.75;4977039;28;20473;-79
2023/08/01 06:55:56;;;;;;;7.50;4.60;;;17.50;99.90;;;17.73;94.38;96636.06;4982615;28;20468;-77
2023/08/01 06:58:24;;;;;;;5.37;4.87;;;17.50;99.90;;;17.97;91.58;96652.41;4976030;28;21229;-75
2023/08/01 07:00:51;;;;;;;7.60;3.90;;;17.60;99.90;;;17.65;92.35;96645.75;4976946;28;20454;-77
2023/08/01 07:03:20;;;;;;;5.90;4.27;;;17.60;99.90;;;17.84;92.80;96649.28;4999535;28;20463;-77
2023/08/01 07:05:48;;;;;;;6.90;4.87;;;17.60;99.90;;;17.97;91.92;96653.19;4996803;28;20550;-78
2023/08/01 07:08:16;;;;;;;5.70;4.20;;;17.70;99.90;;;17.78;91.52;96628.63;4976927;28;21529;-77
2023/08/01 07:10:43;;;;;;;4.67;4.20;;;17.80;99.90;;;17.84;93.14;96638.38;4903841;28;2197528;-90
2023/08/01 07:13:10;;;;;;;5.70;4.47;;;17.70;99.90;;;17.67;92.75;96621.69;4975317;28;20200;-82
2023/08/01 07:15:38;;;;;;;7.83;4.63;;;17.70;99.90;;;17.95;92.13;96632.72;5002475;28;20451;-87
2023/08/01 07:18:05;;;;;;;6.83;5.07;;;17.70;99.90;;;17.92;92.18;96630.59;4982984;28;20766;-81
2023/08/01 07:20:33;;;;;;;5.23;4.43;;;17.70;99.90;;;18.00;91.94;96619.00;5011582;28;20483;-82
2023/08/01 07:23:01;;;;;;;6.77;4.30;;;17.80;99.90;;;17.61;92.01;96557.34;5003057;28;20861;-87
2023/08/01 07:25:29;;;;;;;9.00;5.37;;;17.80;99.90;;;18.06;92.90;96617.84;4991808;28;20459;-84
2023/08/01 07:28:02;;;;;;;5.87;4.40;;;17.80;99.90;;;17.98;93.23;96604.84;4982527;28;20442;-88
2023/08/01 07:30:30;;;;;;;5.40;4.90;;;17.80;99.90;;;17.88;94.12;96622.19;5005241;28;20457;-85
2023/08/01 07:32:58;;;;;;;6.67;5.07;;;17.80;99.90;;;17.70;92.09;96545.44;4995939;28;20453;-87
2023/08/01 07:35:25;;;;;;;7.20;4.90;;;17.90;99.90;;;17.73;93.95;96541.31;5004252;28;20468;-87
2023/08/01 07:37:52;;;;;;;5.50;5.00;;;17.90;99.90;;;18.04;92.73;96617.31;4981221;28;20461;-88
2023/08/01 07:40:28;;;;;;;8.90;5.97;;;17.80;99.90;;;17.69;94.83;96581.25;5012456;28;20463;-81
2023/08/01 07:42:59;;;;;;;6.57;5.13;;;17.80;99.90;;;17.53;94.40;96562.38;5013689;28;20549;-82
2023/08/01 07:45:29;;;;;;;8.47;4.83;;;17.70;99.90;;;17.68;96.24;96610.47;5023535;28;20449;-81
2023/08/01 07:47:57;;;;;;;6.10;4.40;;;17.60;99.90;;;17.84;96.11;96616.53;5015267;28;20966;-84
2023/08/01 07:50:24;;;;;;;6.13;5.50;;;17.50;99.90;;;17.85;96.32;96611.84;5006973;28;20455;-87
2023/08/01 07:52:51;;;;;;;7.17;4.90;;;17.60;99.90;;;17.70;95.87;96599.25;5005125;28;20454;-85
2023/08/01 07:55:20;;;;;;;9.83;4.90;;;17.60;99.90;;;17.65;97.46;96602.88;5000199;28;20468;-76
2023/08/01 07:57:49;;;;;;;7.20;5.77;;;17.60;99.90;;;17.74;98.02;96622.13;5003203;28;20896;-82
2023/08/01 08:00:17;;;;;;;8.10;4.70;;;17.60;99.90;;;17.59;97.08;96614.16;5006235;28;20558;-80
2023/08/01 08:02:46;;;;;;;6.37;5.17;;;17.50;99.90;;;17.80;96.93;96620.13;5006429;28;20476;-84
2023/08/01 08:05:13;;;;;;;5.90;5.27;;;17.60;99.90;;;17.62;96.86;96602.63;4987083;28;20878;-80
2023/08/01 08:07:41;;;;;;;5.27;4.77;;;17.60;99.90;;;17.75;97.88;96601.09;4990955;28;20977;-80
2023/08/01 08:10:09;;;;;;;7.30;5.77;;;17.60;99.90;;;17.85;97.31;96603.66;4985843;28;20462;-81
2023/08/01 08:12:37;;;;;;;11.03;5.43;;;17.60;99.90;;;17.91;97.08;96594.28;4999391;28;20469;-82
2023/08/01 08:15:07;;;;;;;8.27;4.93;;;17.70;99.90;;;17.78;95.86;96590.38;4999206;28;21098;-80
2023/08/01 08:17:34;;;;;;;6.93;4.20;;;17.80;99.90;;;17.72;97.17;96597.03;4997003;28;21275;-81
2023/08/01 08:20:03;;;;;;;6.20;4.57;;;17.70;99.90;;;17.16;96.96;96520.31;5010177;28;20952;-79
2023/08/01 08:22:30;;;;;;;6.80;4.80;;;17.60;99.90;;;17.52;97.05;96598.97;4985426;28;20477;-82
2023/08/01 08:24:58;;;;;;;5.80;4.50;;;17.60;99.90;;;17.55;97.48;96609.28;4991006;28;20482;-81
2023/08/01 08:27:25;;;;;;;6.10;4.60;;;17.50;99.90;;;17.41;94.28;96575.66;4994463;28;20949;-82
2023/08/01 08:29:52;;;;;;;5.10;4.03;;;17.60;99.90;;;17.45;93.57;96584.06;4991961;28;20827;-81
2023/08/01 08:32:21;;;;;;;5.47;3.80;;;17.60;99.90;;;17.62;92.86;96643.59;4979485;28;20906;-80
2023/08/01 08:34:48;;;;;;;5.47;3.90;;;17.70;99.90;;;17.46;94.48;96626.63;4991373;28;20444;-81
2023/08/01 08:37:16;;;;;;;4.90;3.83;;;17.50;99.90;;;17.34;93.94;96613.41;5013031;28;21008;-80
2023/08/01 08:39:43;;;;;;;5.20;3.50;;;17.50;99.90;;;17.56;93.38;96651.88;4984051;28;20452;-80
2023/08/01 08:42:12;;;;;;;6.53;3.37;;;17.50;99.90;;;17.51;92.62;96646.47;5004139;28;20552;-80
2023/08/01 08:44:44;;;;;;;4.37;3.60;;;17.50;99.90;;;17.60;91.88;96640.34;4968882;28;20958;-79
2023/08/01 08:47:13;;;;;;;5.90;4.00;;;17.60;99.90;;;16.73;91.24;96533.94;4980184;28;20461;-82
2023/08/01 08:49:42;;;;;;;4.30;3.83;;;17.50;98.40;;;17.34;92.77;96641.53;5001279;28;21016;-79
2023/08/01 08:52:11;;;;;;;5.63;4.27;;;17.40;99.90;;;16.88;94.63;96629.22;5002099;28;20486;-81
2023/08/01 08:54:39;;;;;;;5.93;4.60;;;17.10;99.90;;;17.00;95.82;96587.94;4993905;28;20461;-79
2023/08/01 08:57:07;;;;;;;4.13;3.70;;;17.00;99.90;;;16.85;95.63;96537.06;5021879;28;20456;-80
2023/08/01 08:59:35;;;;;;;6.60;5.50;;;16.90;99.90;;;16.97;95.43;96512.91;5012315;28;20461;-80
2023/08/01 09:02:04;;;;;;;7.20;4.73;;;16.90;99.90;;;16.15;96.00;96422.06;5004683;28;21232;-75
2023/08/01 09:04:32;;;;;;;5.43;4.10;;;16.90;99.90;;;16.85;95.91;96523.44;4990119;28;20753;-79
2023/08/01 09:07:04;;;;;;;5.20;4.70;;;16.90;99.90;;;16.83;96.08;96528.38;5006986;28;20512;-78
2023/08/01 09:09:33;;;;;;;6.30;5.50;;;16.90;99.90;;;17.04;95.97;96558.13;5006573;28;20517;-79
2023/08/01 09:12:00;;;;;;;8.90;4.37;;;17.00;99.90;;;17.30;94.27;96576.91;4987832;28;20586;-81
2023/08/01 09:14:29;;;;;;;7.23;3.70;;;17.10;99.90;;;17.84;89.82;96577.44;5010462;28;20453;-80
2023/08/01 09:16:56;;;;;;;6.90;4.50;;;17.50;99.90;;;18.40;87.80;96588.56;5005522;28;20874;-81
2023/08/01 09:19:27;;;;;;;5.53;4.27;;;18.00;99.60;;;18.54;85.63;96575.72;5022565;28;20460;-78
2023/08/01 09:21:55;;;;;;;5.90;4.20;;;18.30;96.20;;;18.67;84.95;96571.34;4995037;28;20530;-79
2023/08/01 09:24:23;;;;;;;5.13;3.50;;;18.60;95.00;;;18.93;84.16;96570.84;4992638;28;20451;-78
2023/08/01 09:26:51;;;;;;;4.80;4.27;;;18.70;95.00;;;19.46;80.67;96574.13;5007898;28;20465;-79
2023/08/01 09:29:20;;;;;;;5.40;3.80;;;19.10;93.70;;;19.27;79.46;96592.63;4989785;28;20489;-82
2023/08/01 09:31:49;;;;;;;6.77;3.67;;;19.20;92.30;;;19.24;80.64;96578.44;5004349;28;20454;-78
2023/08/01 09:34:21;;;;;;;5.07;3.90;;;19.20;92.60;;;19.18;80.54;96567.91;4985149;28;20469;-80
2023/08/01 09:36:49;;;;;;;4.47;4.03;;;19.20;92.60;;;19.32;80.17;96579.66;4975919;28;20677;-81
2023/08/01 09:39:18;;;;;;;4.50;3.50;;;19.20;92.30;;;19.71;77.29;96596.56;4989372;28;20472;-81
2023/08/01 09:41:47;;;;;;;4.60;3.60;;;19.50;91.70;;;19.08;79.04;96560.72;4998274;28;20556;-79
2023/08/01 09:44:17;;;;;;;4.13;3.40;;;19.40;91.60;;;19.05;78.07;96542.19;4998057;28;20471;-78
2023/08/01 09:46:56;;;;;;;6.10;3.43;;;19.30;91.60;;;19.35;78.09;96583.69;4994108;28;21531;-78
2023/08/01 09:49:24;;;;;;;5.70;4.07;;;19.40;91.80;;;19.33;77.83;96584.00;5003325;28;20830;-77
2023/08/01 09:51:52;;;;;;;5.27;4.27;;;19.30;91.50;;;19.03;79.55;96569.84;4992292;28;20473;-77
2023/08/01 09:54:20;;;;;;;6.07;3.90;;;19.10;91.70;;;19.27;77.11;96554.31;4979494;28;20444;-77
2023/08/01 09:56:50;;;;;;;7.00;4.40;;;19.30;91.40;;;19.21;79.00;96586.44;4982983;28;20473;-77
2023/08/01 09:59:21;;;;;;;5.30;4.80;;;19.30;91.70;;;18.65;80.54;96550.88;4995624;28;20498;-77
2023/08/01 10:01:51;;;;;;;5.07;4.50;;;19.00;91.80;;;18.78;81.16;96582.91;5015727;28;20467;-80
2023/08/01 10:04:22;;;;;;;3.87;3.50;;;18.90;92.30;;;19.25;78.56;96588.28;5018608;28;20489;-81
2023/08/01 10:06:58;;;;;;;5.80;3.70;;;19.10;91.70;;;19.01;79.55;96591.25;5025021;28;20537;-80
2023/08/01 10:09:26;;;;;;;5.33;4.10;;;19.00;91.90;;;18.59;81.42;96584.94;4997064;28;20500;-76
2023/08/01 10:11:58;;;;;;;4.03;3.63;;;18.70;92.20;;;18.76;79.31;96505.00;4987071;28;20464;-76
2023/08/01 10:14:26;;;;;;;4.43;3.80;;;18.90;92.70;;;20.21;75.10;96576.47;4998773;28;21148;-80
2023/08/01 10:16:55;;;;;;;5.63;3.80;;;19.50;91.90;;;19.76;75.72;96530.69;4986209;28;20461;-77
2023/08/01 10:19:23;;;;;;;5.47;3.60;;;19.80;91.20;;;19.81;76.29;96571.69;4999830;28;20467;-77
2023/08/01 10:21:51;;;;;;;4.73;3.60;;;19.80;91.00;;;19.95;76.39;96587.28;5000874;28;20452;-78
2023/08/01 10:24:20;;;;;;;5.03;4.07;;;19.80;91.10;;;20.04;75.67;96584.59;4990869;28;20481;-78